Time;durP1;ratioP1;P1;durP2;ratioP2;P2;SDS_P1;SDS_P2;PMS_P1;PMS_P2;Temp;Humidity;BMP_temperature;BMP_pressure;BME280_temperature;BME280_humidity;BME280_pressure;Samples;Min_cycle;Max_cycle;Signal;HPM_P1;HPM_P2
2021/09/11 00:01:26;;;;;;;5.50;2.97;;;;;;;21.65;66.28;101476.41;5006345;28;20069;-83
2021/09/11 00:03:51;;;;;;;4.43;2.28;;;;;;;21.92;65.72;101488.53;4985956;28;20221;-82
2021/09/11 00:06:17;;;;;;;5.10;3.38;;;;;;;21.99;64.79;101476.41;4967805;28;20018;-82
2021/09/11 00:08:42;;;;;;;9.75;2.75;;;;;;;21.54;66.36;101463.03;5000613;28;20026;-82
2021/09/11 00:11:08;;;;;;;6.70;3.10;;;;;;;21.67;66.36;101466.47;5000547;28;20038;-82
2021/09/11 00:13:33;;;;;;;7.43;2.63;;;;;;;21.93;65.97;101471.56;4969373;28;20045;-82
2021/09/11 00:15:58;;;;;;;6.53;3.25;;;;;;;22.17;64.94;101466.09;4979992;28;20041;-82
2021/09/11 00:18:24;;;;;;;4.88;2.83;;;;;;;21.99;65.49;101477.28;4980052;28;20041;-82
2021/09/11 00:20:49;;;;;;;6.90;2.45;;;;;;;22.04;65.59;101475.06;5000224;28;20034;-82
2021/09/11 00:23:15;;;;;;;6.95;4.20;;;;;;;21.49;63.29;101474.06;4994840;28;20037;-82
2021/09/11 00:25:40;;;;;;;9.85;5.38;;;;;;;22.03;65.19;101472.56;5004353;28;20037;-82
2021/09/11 00:28:06;;;;;;;7.32;2.78;;;;;;;22.42;63.13;101470.34;4986253;28;20027;-83
2021/09/11 00:30:31;;;;;;;7.55;3.97;;;;;;;21.78;65.80;101476.28;5039616;28;20545;-82
2021/09/11 00:32:57;;;;;;;5.45;4.93;;;;;;;21.47;67.06;101474.19;5041491;28;20025;-82
2021/09/11 00:35:22;;;;;;;9.32;2.63;;;;;;;21.98;66.08;101472.06;4996736;28;20030;-82
2021/09/11 00:37:48;;;;;;;7.45;3.58;;;;;;;21.60;66.89;101476.75;4984843;28;20396;-82
2021/09/11 00:40:14;;;;;;;5.38;3.45;;;;;;;21.67;67.09;101477.13;4982004;28;20026;-82
2021/09/11 00:42:46;;;;;;;9.50;4.07;;;;;;;21.34;67.85;101467.19;5003921;28;20237;-82
2021/09/11 00:45:12;;;;;;;7.80;3.85;;;;;;;21.50;67.46;101470.41;4999731;28;20101;-81
2021/09/11 00:47:38;;;;;;;6.22;3.47;;;;;;;21.46;67.70;101468.97;4993575;28;20042;-83
2021/09/11 00:50:04;;;;;;;7.35;2.58;;;;;;;22.08;65.88;101467.69;4989316;28;20221;-83
2021/09/11 00:52:30;;;;;;;6.50;3.05;;;;;;;21.74;66.68;101470.34;4986815;28;20113;-82
2021/09/11 00:54:55;;;;;;;6.55;3.17;;;;;;;21.38;66.37;101469.53;4982649;28;20018;-83
2021/09/11 00:57:21;;;;;;;9.70;3.70;;;;;;;21.98;65.67;101472.91;5008487;28;20037;-82
2021/09/11 00:59:46;;;;;;;5.25;3.58;;;;;;;21.91;66.24;101474.34;5019464;28;20040;-82
2021/09/11 01:02:12;;;;;;;5.20;4.20;;;;;;;21.75;66.13;101477.38;5026070;28;20079;-81
2021/09/11 01:04:37;;;;;;;9.88;2.78;;;;;;;22.02;64.49;101474.34;5026507;28;20045;-82
2021/09/11 01:07:03;;;;;;;4.88;2.45;;;;;;;21.76;66.89;101475.56;5004230;28;20026;-82
2021/09/11 01:09:28;;;;;;;5.65;3.33;;;;;;;22.09;65.29;101480.06;5022185;28;20022;-82
2021/09/11 01:11:54;;;;;;;9.02;4.80;;;;;;;21.50;67.10;101470.41;5000120;28;20104;-82
2021/09/11 01:14:19;;;;;;;11.63;4.30;;;;;;;21.28;64.76;101473.84;5002247;28;20405;-82
2021/09/11 01:16:45;;;;;;;11.80;4.60;;;;;;;21.43;67.65;101474.53;5006875;28;20037;-82
2021/09/11 01:19:10;;;;;;;5.60;2.42;;;;;;;22.04;66.02;101472.41;5006211;28;20284;-82
2021/09/11 01:21:36;;;;;;;14.93;4.32;;;;;;;21.49;67.25;101473.22;5003952;28;20037;-82
2021/09/11 01:24:01;;;;;;;7.90;5.40;;;;;;;20.87;65.38;101476.00;5006132;28;20234;-82
2021/09/11 01:26:27;;;;;;;6.70;2.75;;;;;;;21.48;67.98;101472.34;5021654;28;20100;-83
2021/09/11 01:28:52;;;;;;;12.35;3.78;;;;;;;21.31;68.13;101470.13;4996087;28;20034;-83
2021/09/11 01:31:18;;;;;;;5.78;3.30;;;;;;;21.85;66.67;101477.50;5008636;28;20127;-82
2021/09/11 01:33:43;;;;;;;6.60;3.40;;;;;;;21.94;63.06;101470.59;4991495;28;20211;-83
2021/09/11 01:36:08;;;;;;;8.85;3.47;;;;;;;22.24;65.25;101475.31;5002457;28;20038;-83
2021/09/11 01:38:34;;;;;;;10.30;2.33;;;;;;;22.22;65.37;101478.09;4998203;28;20253;-83
2021/09/11 01:40:59;;;;;;;6.55;3.53;;;;;;;21.71;66.99;101480.41;4986315;28;20035;-82
2021/09/11 01:43:32;;;;;;;8.48;3.85;;;;;;;21.69;67.08;101482.34;4987028;28;20042;-82
2021/09/11 01:45:58;;;;;;;10.18;4.68;;;;;;;21.50;67.76;101473.09;5002695;28;20034;-82
2021/09/11 01:48:23;;;;;;;7.82;2.92;;;;;;;21.62;67.54;101479.28;5000028;28;20042;-82
2021/09/11 01:50:49;;;;;;;10.25;3.67;;;;;;;22.13;64.87;101470.84;5019126;28;20076;-82
2021/09/11 01:53:14;;;;;;;12.48;5.40;;;;;;;21.54;67.31;101476.34;4987106;28;20088;-82
2021/09/11 01:55:40;;;;;;;11.82;4.82;;;;;;;21.75;65.90;101480.03;4985266;28;20241;-82
2021/09/11 01:58:05;;;;;;;7.07;5.00;;;;;;;21.29;67.91;101475.56;4993945;28;20065;-82
2021/09/11 02:00:30;;;;;;;4.97;3.03;;;;;;;21.48;68.22;101480.34;5037562;28;20111;-82
2021/09/11 02:02:56;;;;;;;7.43;4.35;;;;;;;21.26;67.07;101470.47;5015892;28;20034;-82
2021/09/11 02:05:21;;;;;;;8.52;5.80;;;;;;;21.44;64.64;101478.84;5003036;28;20056;-82
2021/09/11 02:07:47;;;;;;;5.63;4.90;;;;;;;21.60;66.63;101478.56;5011165;28;20080;-82
2021/09/11 02:10:13;;;;;;;3.72;2.28;;;;;;;21.62;67.76;101481.97;4992148;28;20101;-82
2021/09/11 02:12:38;;;;;;;7.85;4.43;;;;;;;21.23;66.47;101476.88;4985952;28;20333;-82
2021/09/11 02:15:04;;;;;;;9.57;2.78;;;;;;;21.81;66.90;101476.03;4986089;28;20037;-82
2021/09/11 02:17:29;;;;;;;10.80;6.45;;;;;;;20.82;69.94;101485.28;4986074;28;20050;-82
2021/09/11 02:19:55;;;;;;;7.93;2.88;;;;;;;21.14;69.43;101472.25;4987777;28;20143;-81
2021/09/11 02:22:20;;;;;;;8.65;5.25;;;;;;;20.97;68.66;101470.00;5000852;28;20073;-82
2021/09/11 02:24:46;;;;;;;5.38;2.80;;;;;;;21.64;67.63;101475.53;4988734;28;20026;-82
2021/09/11 02:27:14;;;;;;;5.55;3.97;;;;;;;21.41;67.96;101469.31;5004306;28;20230;-81
2021/09/11 02:29:40;;;;;;;;;;;;;;;21.44;67.21;101477.03;5012019;28;20312;-81
2021/09/11 02:32:05;;;;;;;6.63;2.43;;;;;;;22.00;66.05;101481.63;5027931;28;19912;-81
2021/09/11 02:34:32;;;;;;;4.97;2.83;;;;;;;21.39;68.04;101479.22;5002577;28;20649;-82
2021/09/11 02:36:57;;;;;;;5.53;3.25;;;;;;;21.33;67.01;101470.84;5000569;28;20099;-82
2021/09/11 02:39:23;;;;;;;8.57;4.22;;;;;;;21.40;66.06;101475.59;4983787;28;20026;-82
2021/09/11 02:41:48;;;;;;;9.77;6.30;;;;;;;20.65;67.88;101471.41;4988937;28;20341;-82
2021/09/11 02:44:14;;;;;;;11.38;5.57;;;;;;;20.72;68.31;101469.16;4990758;28;20030;-82
2021/09/11 02:46:39;;;;;;;10.98;3.92;;;;;;;20.76;70.62;101472.44;4991556;28;20044;-82
2021/09/11 02:49:05;;;;;;;3.70;2.20;;;;;;;21.93;66.55;101474.25;5017342;28;20029;-81
2021/09/11 02:51:30;;;;;;;7.53;4.07;;;;;;;21.49;67.70;101473.22;4978289;28;20034;-82
2021/09/11 02:53:56;;;;;;;4.70;2.08;;;;;;;21.84;66.58;101471.31;4988585;28;20026;-82
2021/09/11 02:56:21;;;;;;;6.18;2.95;;;;;;;21.49;67.79;101467.91;5005462;28;20057;-82
2021/09/11 02:58:46;;;;;;;3.75;2.38;;;;;;;21.89;66.66;101462.13;4985273;28;20048;-82
2021/09/11 03:01:15;;;;;;;7.18;3.70;;;;;;;21.52;67.46;101467.63;5004324;28;20271;-81
2021/09/11 03:03:40;;;;;;;6.05;3.80;;;;;;;21.34;67.82;101457.41;4989075;28;20257;-82
2021/09/11 03:06:05;;;;;;;11.25;6.22;;;;;;;21.34;66.74;101459.22;4988267;28;20030;-82
2021/09/11 03:08:31;;;;;;;8.02;3.72;;;;;;;21.42;67.73;101455.00;5028428;28;20344;-82
2021/09/11 03:10:56;;;;;;;9.93;4.85;;;;;;;20.63;67.91;101459.16;5009130;28;20024;-82
2021/09/11 03:13:22;;;;;;;6.70;3.03;;;;;;;21.73;67.06;101459.81;5036722;28;20037;-82
2021/09/11 03:15:48;;;;;;;7.55;3.28;;;;;;;21.28;68.16;101461.41;5005409;28;20030;-83
2021/09/11 03:18:13;;;;;;;3.63;2.15;;;;;;;21.70;67.43;101465.38;5025674;28;20029;-82
2021/09/11 03:20:38;;;;;;;10.02;2.95;;;;;;;21.27;66.11;101461.50;5024835;28;20083;-82
2021/09/11 03:23:04;;;;;;;8.23;5.05;;;;;;;21.16;67.43;101469.47;4975013;28;20029;-82
2021/09/11 03:25:30;;;;;;;4.50;2.30;;;;;;;21.47;68.04;101471.50;4995618;28;20045;-82
2021/09/11 03:27:55;;;;;;;2.35;2.15;;;;;;;21.43;68.36;101469.19;5021756;28;20033;-82
2021/09/11 03:30:21;;;;;;;7.03;3.83;;;;;;;21.44;67.93;101471.72;4984242;28;20105;-82
2021/09/11 03:32:46;;;;;;;3.55;2.30;;;;;;;21.77;66.51;101474.59;4985070;28;20034;-82
2021/09/11 03:35:12;;;;;;;9.90;4.72;;;;;;;21.63;67.20;101473.00;4985532;28;20042;-81
2021/09/11 03:37:37;;;;;;;9.98;4.55;;;;;;;21.58;67.25;101472.50;4984746;28;20036;-82
2021/09/11 03:40:04;;;;;;;9.43;4.55;;;;;;;21.83;66.03;101474.97;4984866;28;20034;-82
2021/09/11 03:42:29;;;;;;;3.28;2.33;;;;;;;21.57;67.54;101470.81;4983880;28;20050;-82
2021/09/11 03:44:55;;;;;;;6.07;3.22;;;;;;;21.80;66.94;101474.34;5006884;28;20206;-83
2021/09/11 03:47:20;;;;;;;6.10;3.13;;;;;;;21.52;67.76;101478.28;5015232;28;20038;-82
2021/09/11 03:49:46;;;;;;;6.28;3.17;;;;;;;21.56;66.34;101479.78;5040223;28;20057;-82
2021/09/11 03:52:11;;;;;;;7.57;3.72;;;;;;;21.54;67.34;101474.56;5023512;28;20336;-82
2021/09/11 03:54:37;;;;;;;9.93;5.88;;;;;;;21.03;66.60;101477.53;5021537;28;20025;-82
2021/09/11 03:57:02;;;;;;;4.00;3.63;;;;;;;21.05;68.74;101471.13;5003017;28;20042;-82
2021/09/11 03:59:28;;;;;;;2.90;2.50;;;;;;;21.22;68.72;101472.50;5005907;28;20110;-82
2021/09/11 04:01:53;;;;;;;4.55;1.90;;;;;;;22.08;65.96;101478.34;4984682;28;20100;-82
2021/09/11 04:04:18;;;;;;;10.45;6.00;;;;;;;21.22;67.90;101469.84;5008846;28;20040;-82
2021/09/11 04:06:44;;;;;;;5.82;3.38;;;;;;;21.53;67.49;101470.19;5018726;28;20060;-82
2021/09/11 04:09:09;;;;;;;17.25;7.57;;;;;;;19.88;70.77;101479.53;5009097;28;20038;-82
2021/09/11 04:11:35;;;;;;;5.10;2.75;;;;;;;21.97;66.26;101478.34;5017595;28;20375;-82
2021/09/11 04:14:00;;;;;;;10.98;6.63;;;;;;;21.11;68.52;101471.63;5021237;28;20370;-82
2021/09/11 04:16:26;;;;;;;7.13;4.53;;;;;;;21.27;67.15;101473.00;5012175;28;20069;-82
2021/09/11 04:18:51;;;;;;;9.48;4.65;;;;;;;21.82;66.02;101473.25;5016216;28;20029;-82
2021/09/11 04:21:16;;;;;;;4.28;3.75;;;;;;;21.43;68.12;101471.84;5044530;28;20333;-82
2021/09/11 04:23:42;;;;;;;10.18;6.05;;;;;;;20.41;69.55;101478.47;5012287;28;20066;-82
2021/09/11 04:26:07;;;;;;;3.22;2.30;;;;;;;21.58;67.74;101476.03;5028097;28;20355;-82
2021/09/11 04:28:33;;;;;;;2.88;2.53;;;;;;;21.54;67.64;101479.91;5019959;28;20038;-82
2021/09/11 04:30:58;;;;;;;3.95;2.10;;;;;;;21.92;66.10;101472.53;5004651;28;20109;-82
2021/09/11 04:33:23;;;;;;;2.30;2.10;;;;;;;21.71;67.27;101483.06;4988264;28;20032;-82
2021/09/11 04:35:49;;;;;;;7.40;3.38;;;;;;;21.56;67.00;101480.63;4992215;28;20345;-81
2021/09/11 04:38:14;;;;;;;3.97;3.08;;;;;;;21.88;66.34;101481.75;5010155;28;20258;-81
2021/09/11 04:40:40;;;;;;;3.10;2.50;;;;;;;21.51;68.09;101480.13;5006195;28;20077;-82
2021/09/11 04:43:07;;;;;;;3.60;2.20;;;;;;;21.93;64.22;101483.06;5008077;28;20053;-82
2021/09/11 04:45:33;;;;;;;7.72;4.43;;;;;;;21.47;67.36;101478.66;5006396;28;20048;-83
2021/09/11 04:47:58;;;;;;;3.47;2.72;;;;;;;21.74;65.50;101480.16;5007335;28;20045;-82
2021/09/11 04:50:24;;;;;;;2.92;2.53;;;;;;;21.85;65.78;101474.84;5040818;28;20127;-82
2021/09/11 04:52:49;;;;;;;8.55;5.15;;;;;;;21.08;69.12;101483.34;5027399;28;20056;-82
2021/09/11 04:55:16;;;;;;;2.92;2.47;;;;;;;21.66;67.48;101483.41;5023597;28;20030;-82
2021/09/11 04:57:42;;;;;;;5.78;3.00;;;;;;;21.34;68.24;101475.19;5007665;28;20085;-82
2021/09/11 05:00:08;;;;;;;3.72;2.28;;;;;;;21.94;66.37;101474.13;5007307;28;20050;-82
2021/09/11 05:02:33;;;;;;;2.63;2.35;;;;;;;21.99;65.75;101485.28;5003763;28;20310;-82
2021/09/11 05:04:59;;;;;;;12.57;5.32;;;;;;;21.35;67.78;101479.56;4988116;28;20050;-82
2021/09/11 05:07:24;;;;;;;12.93;3.90;;;;;;;21.27;68.31;101489.00;5015301;28;20042;-82
2021/09/11 05:09:50;;;;;;;5.85;4.18;;;;;;;21.51;67.89;101480.13;5014562;28;20030;-82
2021/09/11 05:12:16;;;;;;;9.75;6.05;;;;;;;21.20;67.13;101489.56;5022190;28;20091;-82
2021/09/11 05:14:41;;;;;;;8.68;4.38;;;;;;;21.65;66.06;101485.25;4991354;28;20033;-82
2021/09/11 05:17:07;;;;;;;4.60;2.65;;;;;;;21.38;68.06;101479.34;5010438;28;20026;-82
2021/09/11 05:19:32;;;;;;;5.68;3.33;;;;;;;21.20;68.18;101490.41;5012364;28;20088;-82
2021/09/11 05:21:57;;;;;;;7.57;4.97;;;;;;;20.99;67.74;101490.22;5010828;28;20029;-82
2021/09/11 05:24:23;;;;;;;7.97;4.38;;;;;;;21.48;67.78;101493.66;5015119;28;20030;-82
2021/09/11 05:26:48;;;;;;;15.77;5.32;;;;;;;21.74;66.88;101497.00;4974266;28;20195;-82
2021/09/11 05:29:14;;;;;;;11.00;5.80;;;;;;;21.40;67.52;101493.38;4994135;28;20029;-82
2021/09/11 05:31:39;;;;;;;6.68;3.35;;;;;;;21.78;66.57;101494.97;5021675;28;20109;-82
2021/09/11 05:34:07;;;;;;;8.07;4.20;;;;;;;21.76;66.30;101491.56;4991373;28;20052;-82
2021/09/11 05:36:33;;;;;;;7.60;5.03;;;;;;;21.59;67.27;101492.84;4995159;28;20137;-82
2021/09/11 05:38:58;;;;;;;6.28;2.85;;;;;;;21.51;67.55;101495.28;4989482;28;20025;-82
2021/09/11 05:41:24;;;;;;;10.18;6.90;;;;;;;21.12;68.87;101492.81;4992182;28;20045;-82
2021/09/11 05:43:49;;;;;;;13.20;9.13;;;;;;;20.53;70.04;101499.72;5000679;28;20045;-82
2021/09/11 05:46:15;;;;;;;10.50;5.82;;;;;;;20.90;69.51;101501.53;4989903;28;20029;-82
2021/09/11 05:48:40;;;;;;;9.18;5.45;;;;;;;21.18;69.00;101508.34;5013098;28;20140;-82
2021/09/11 05:51:06;;;;;;;9.35;5.07;;;;;;;20.95;69.17;101510.03;5033708;28;20024;-82
2021/09/11 05:53:31;;;;;;;18.35;10.20;;;;;;;19.81;72.16;101515.47;5046440;28;20108;-82
2021/09/11 05:55:57;;;;;;;12.73;5.88;;;;;;;21.06;68.34;101514.56;5010566;28;20029;-82
2021/09/11 05:58:23;;;;;;;5.50;3.40;;;;;;;21.63;67.47;101523.66;5008055;28;20049;-82
2021/09/11 06:00:49;;;;;;;5.00;2.70;;;;;;;21.52;67.73;101523.59;5002993;28;20045;-82
2021/09/11 06:03:15;;;;;;;7.53;3.38;;;;;;;21.12;69.11;101531.91;5011165;28;20029;-82
2021/09/11 06:05:41;;;;;;;6.90;4.65;;;;;;;20.78;69.95;101537.91;5044396;28;20096;-82
2021/09/11 06:08:07;;;;;;;8.10;3.40;;;;;;;21.06;68.11;101527.88;5004753;28;20229;-83
2021/09/11 06:10:32;;;;;;;11.98;8.40;;;;;;;20.59;71.18;101534.84;4987977;28;20025;-83
2021/09/11 06:12:59;;;;;;;4.28;3.30;;;;;;;21.28;67.83;101532.44;5006843;28;20038;-84
2021/09/11 06:15:24;;;;;;;15.05;8.07;;;;;;;20.88;69.64;101541.59;5005553;28;20256;-83
2021/09/11 06:17:50;;;;;;;13.77;5.18;;;;;;;21.04;70.10;101541.31;5022751;28;20060;-83
2021/09/11 06:20:15;;;;;;;6.43;3.53;;;;;;;21.40;68.17;101544.84;5026195;28;20086;-83
2021/09/11 06:22:41;;;;;;;14.00;8.80;;;;;;;21.15;68.20;101551.16;5043920;28;20044;-82
2021/09/11 06:25:07;;;;;;;15.23;8.00;;;;;;;20.45;68.78;101552.66;5026918;28;20033;-82
2021/09/11 06:27:32;;;;;;;16.55;9.25;;;;;;;20.58;69.58;101549.13;5013591;28;20049;-82
2021/09/11 06:29:58;;;;;;;8.73;4.00;;;;;;;21.04;69.45;101554.63;5003911;28;20308;-82
2021/09/11 06:32:23;;;;;;;15.60;3.22;;;;;;;21.65;67.84;101548.38;5001727;28;20034;-82
2021/09/11 06:34:49;;;;;;;15.90;9.77;;;;;;;21.00;67.36;101553.16;5007769;28;20033;-82
2021/09/11 06:37:14;;;;;;;12.57;6.80;;;;;;;20.67;69.73;101548.47;5001554;28;20034;-82
2021/09/11 06:39:39;;;;;;;16.65;10.02;;;;;;;20.05;71.91;101552.78;5008596;28;20069;-82
2021/09/11 06:42:05;;;;;;;13.90;6.35;;;;;;;20.15;71.54;101553.00;5002531;28;20037;-83
2021/09/11 06:44:30;;;;;;;13.32;7.47;;;;;;;20.80;70.44;101554.59;4998322;28;20613;-82
2021/09/11 06:46:56;;;;;;;8.00;4.35;;;;;;;21.78;67.52;101561.59;5005395;28;20048;-81
2021/09/11 06:49:22;;;;;;;9.52;5.93;;;;;;;21.36;68.20;101561.19;5016397;28;20053;-81
2021/09/11 06:51:47;;;;;;;12.43;4.05;;;;;;;22.10;65.92;101561.75;5003507;28;20049;-82
2021/09/11 06:54:13;;;;;;;14.55;9.70;;;;;;;21.66;66.78;101563.38;5015678;28;20045;-81
2021/09/11 06:56:38;;;;;;;6.85;4.88;;;;;;;22.02;65.79;101566.84;4983387;28;20032;-81
2021/09/11 06:59:04;;;;;;;6.07;2.60;;;;;;;22.24;64.98;101576.69;5021540;28;20041;-82
2021/09/11 07:01:29;;;;;;;7.97;2.85;;;;;;;22.31;64.46;101567.25;5011722;28;20025;-82
2021/09/11 07:03:54;;;;;;;5.22;2.63;;;;;;;22.37;64.26;101566.75;5010060;28;20037;-81
2021/09/11 07:06:20;;;;;;;7.13;3.80;;;;;;;22.32;64.43;101568.97;5029534;28;20048;-82
2021/09/11 07:08:45;;;;;;;4.68;3.17;;;;;;;22.30;64.51;101572.72;4974444;28;20040;-82
2021/09/11 07:11:11;;;;;;;3.03;2.60;;;;;;;22.07;65.32;101574.50;4986833;28;20018;-82
2021/09/11 07:13:37;;;;;;;8.20;2.13;;;;;;;22.51;63.40;101575.50;4989498;28;20045;-82
2021/09/11 07:16:05;;;;;;;3.35;2.28;;;;;;;22.35;64.01;101576.72;4993391;28;20034;-81
2021/09/11 07:18:32;;;;;;;8.02;4.95;;;;;;;22.11;64.88;101578.63;5017081;28;20431;-82
2021/09/11 07:20:57;;;;;;;11.07;7.53;;;;;;;21.88;65.17;101578.56;4991011;28;20036;-82
2021/09/11 07:23:23;;;;;;;5.00;3.13;;;;;;;22.50;63.42;101579.97;5019153;28;20232;-82
2021/09/11 07:25:48;;;;;;;3.70;3.03;;;;;;;22.46;63.27;101578.53;5002552;28;20348;-81
2021/09/11 07:28:13;;;;;;;14.68;6.95;;;;;;;22.13;64.28;101585.53;5003875;28;20037;-81
2021/09/11 07:30:39;;;;;;;7.57;3.97;;;;;;;22.53;62.99;101586.91;5009896;28;20042;-81
2021/09/11 07:33:04;;;;;;;5.15;3.65;;;;;;;22.51;62.88;101588.84;5000240;28;20022;-81
2021/09/11 07:35:30;;;;;;;14.35;5.90;;;;;;;22.29;63.29;101587.88;4996707;28;20030;-81
2021/09/11 07:37:55;;;;;;;7.30;4.88;;;;;;;22.46;63.16;101591.88;4993122;28;20034;-81
2021/09/11 07:40:21;;;;;;;8.02;4.35;;;;;;;22.62;62.49;101587.03;4996755;28;20038;-81
2021/09/11 07:42:46;;;;;;;8.32;4.25;;;;;;;22.63;62.34;101595.91;5006470;28;20025;-80
2021/09/11 07:45:13;;;;;;;7.68;4.72;;;;;;;22.56;62.78;101594.69;4992833;28;20021;-80
2021/09/11 07:47:40;;;;;;;7.60;4.53;;;;;;;22.51;62.70;101602.22;4987491;28;20106;-79
2021/09/11 07:50:06;;;;;;;10.63;5.20;;;;;;;22.48;63.00;101603.28;5019888;28;20040;-81
2021/09/11 07:52:31;;;;;;;14.48;8.85;;;;;;;21.76;65.20;101604.38;5010469;28;20037;-83
2021/09/11 07:54:56;;;;;;;7.35;5.05;;;;;;;22.32;63.12;101605.47;5013539;28;20044;-83
2021/09/11 07:57:22;;;;;;;18.85;9.00;;;;;;;21.91;64.17;101604.16;5025358;28;20049;-83
2021/09/11 07:59:47;;;;;;;11.18;6.65;;;;;;;22.23;63.48;101607.03;5005433;28;20034;-83
2021/09/11 08:02:12;;;;;;;12.98;6.75;;;;;;;22.30;62.89;101607.41;5016753;28;20041;-81
2021/09/11 08:04:38;;;;;;;9.93;6.85;;;;;;;22.24;63.08;101616.72;5025902;28;20058;-82
2021/09/11 08:07:03;;;;;;;8.00;6.13;;;;;;;22.29;62.86;101603.91;5026125;28;20045;-81
2021/09/11 08:09:29;;;;;;;9.85;5.28;;;;;;;22.21;63.39;101606.25;5007925;28;20033;-81
2021/09/11 08:11:54;;;;;;;16.73;6.75;;;;;;;22.33;62.83;101617.84;5004437;28;20029;-79
2021/09/11 08:14:19;;;;;;;14.20;8.00;;;;;;;22.30;63.06;101616.25;5031360;28;20075;-81
2021/09/11 08:16:45;;;;;;;20.05;7.30;;;;;;;22.30;63.02;101616.25;5021197;28;20033;-82
2021/09/11 08:19:10;;;;;;;12.18;6.63;;;;;;;22.36;62.62;101618.44;5035561;28;20047;-82
2021/09/11 08:21:36;;;;;;;15.85;8.55;;;;;;;22.37;62.97;101617.47;5021651;28;20897;-82
2021/09/11 08:24:01;;;;;;;22.83;13.02;;;;;;;21.92;65.17;101617.38;4993801;28;20128;-82
2021/09/11 08:26:27;;;;;;;11.00;7.90;;;;;;;22.42;62.79;101620.63;4990390;28;20036;-82
2021/09/11 08:28:53;;;;;;;13.23;8.65;;;;;;;22.13;64.06;101620.19;5017082;28;20025;-82
2021/09/11 08:31:22;;;;;;;14.82;8.40;;;;;;;22.44;63.03;101625.84;5017185;28;20045;-83
2021/09/11 08:33:48;;;;;;;16.73;8.18;;;;;;;22.37;63.08;101628.13;5018581;28;20030;-80
2021/09/11 08:36:13;;;;;;;13.60;7.65;;;;;;;22.43;63.23;101637.50;5007917;28;20098;-80
2021/09/11 08:38:39;;;;;;;10.40;7.60;;;;;;;22.39;63.04;101633.34;5030578;28;20029;-81
2021/09/11 08:41:06;;;;;;;11.48;7.50;;;;;;;22.25;63.97;101639.75;5025768;28;20049;-79
2021/09/11 08:43:32;;;;;;;7.75;6.00;;;;;;;22.60;62.50;101647.69;5014744;28;20045;-80
2021/09/11 08:46:00;;;;;;;7.63;6.10;;;;;;;22.64;62.55;101645.63;5008607;28;20038;-80
2021/09/11 08:48:26;;;;;;;;;;;;;;;22.24;63.96;101654.06;5010380;28;20096;-81
2021/09/11 08:50:55;;;;;;;14.13;7.53;;;;;;;22.54;62.75;101642.84;5035136;28;19921;-80
2021/09/11 08:53:20;;;;;;;10.82;8.05;;;;;;;22.32;63.50;101645.47;4987824;28;20163;-79
2021/09/11 08:55:45;;;;;;;10.30;7.93;;;;;;;22.44;63.78;101647.19;4986477;28;20050;-80
2021/09/11 08:58:14;;;;;;;17.42;11.57;;;;;;;21.78;65.94;101646.91;5011866;28;20041;-80
2021/09/11 09:00:45;;;;;;;16.20;9.55;;;;;;;21.77;66.25;101656.72;5020185;28;20037;-80
2021/09/11 09:03:35;;;;;;;12.38;9.20;;;;;;;22.36;63.91;101650.47;4986266;28;20113;-81
2021/09/11 09:06:25;;;;;;;17.30;10.60;;;;;;;22.23;64.26;101663.03;5002134;28;20033;-79
2021/09/11 09:08:53;;;;;;;18.55;10.77;;;;;;;22.14;65.24;101661.94;5017029;28;20030;-78
2021/09/11 09:11:23;;;;;;;13.38;7.97;;;;;;;22.74;63.26;101662.63;4996959;28;20059;-78
2021/09/11 09:13:57;;;;;;;12.18;7.10;;;;;;;22.81;62.19;101661.16;4991497;28;20326;-78
2021/09/11 09:16:23;;;;;;;14.93;8.60;;;;;;;22.77;62.86;101664.19;5004367;28;20302;-78
2021/09/11 09:18:49;;;;;;;9.95;6.90;;;;;;;22.70;63.24;101662.97;5003673;28;20037;-78
2021/09/11 09:21:23;;;;;;;11.27;7.80;;;;;;;22.64;63.77;101660.81;4998850;28;20018;-78
2021/09/11 09:23:52;;;;;;;17.42;9.70;;;;;;;22.41;64.49;101664.31;4975074;28;20033;-78
2021/09/11 09:26:18;;;;;;;10.73;7.82;;;;;;;22.58;64.02;101667.47;4976737;28;20032;-80
2021/09/11 09:29:04;;;;;;;18.20;9.18;;;;;;;22.61;63.60;101664.53;5010910;28;20029;-78
2021/09/11 09:31:30;;;;;;;14.98;9.50;;;;;;;22.47;64.50;101660.31;4990821;28;20088;-78
2021/09/11 09:33:55;;;;;;;9.90;7.25;;;;;;;22.80;63.16;101666.63;5001932;28;20131;-79
2021/09/11 09:36:21;;;;;;;13.77;7.82;;;;;;;22.89;63.23;101659.72;4988883;28;20049;-78
2021/09/11 09:38:46;;;;;;;8.40;6.65;;;;;;;22.80;63.62;101666.63;4997351;28;20126;-79
2021/09/11 09:41:12;;;;;;;13.18;7.93;;;;;;;22.69;64.54;101664.81;4980369;28;20025;-78
2021/09/11 09:43:40;;;;;;;15.30;8.35;;;;;;;22.78;63.53;101672.09;4986688;28;20030;-79
2021/09/11 09:46:12;;;;;;;10.90;7.55;;;;;;;22.66;64.25;101665.03;5024639;28;20037;-78
2021/09/11 09:48:38;;;;;;;11.38;8.15;;;;;;;22.83;63.27;101670.88;5029903;28;20037;-78
2021/09/11 09:51:17;;;;;;;13.75;8.30;;;;;;;22.80;63.49;101662.13;5016599;28;20026;-78
2021/09/11 09:53:44;;;;;;;10.70;7.70;;;;;;;22.78;63.66;101669.41;5016709;28;20126;-79
2021/09/11 09:56:10;;;;;;;10.93;7.90;;;;;;;22.79;63.62;101663.13;4999592;28;20233;-79
2021/09/11 09:58:36;;;;;;;10.65;8.73;;;;;;;22.58;64.39;101662.97;4987762;28;20037;-79
2021/09/11 10:01:01;;;;;;;14.48;7.43;;;;;;;22.72;63.36;101667.25;5001588;28;20034;-79
2021/09/11 10:03:27;;;;;;;15.25;8.70;;;;;;;22.60;64.00;101666.38;5013237;28;20043;-80
2021/09/11 10:05:58;;;;;;;6.95;5.50;;;;;;;22.54;64.31;101668.66;5014694;28;20045;-80
2021/09/11 10:08:23;;;;;;;8.82;5.82;;;;;;;22.65;64.10;101666.03;4996471;28;20260;-81
2021/09/11 10:10:49;;;;;;;7.18;6.28;;;;;;;22.67;64.00;101660.56;4985609;28;20036;-81
2021/09/11 10:13:16;;;;;;;10.85;7.70;;;;;;;22.78;63.71;101669.41;4996082;28;20366;-79
2021/09/11 10:16:02;;;;;;;7.78;6.97;;;;;;;22.79;63.90;101670.25;4995597;28;20280;-80
2021/09/11 10:18:30;;;;;;;12.73;7.50;;;;;;;22.80;63.99;101670.13;5001482;28;20021;-80
2021/09/11 10:21:17;;;;;;;11.27;6.90;;;;;;;22.84;63.99;101665.41;5017371;28;20057;-79
2021/09/11 10:23:44;;;;;;;9.63;7.10;;;;;;;22.79;64.06;101663.13;5011027;28;20260;-79
2021/09/11 10:26:42;;;;;;;6.60;4.63;;;;;;;22.65;64.51;101662.50;4992263;28;20033;-79
2021/09/11 10:29:36;;;;;;;6.28;5.78;;;;;;;22.76;64.13;101668.69;4992237;28;20033;-79
2021/09/11 10:32:05;;;;;;;6.40;5.80;;;;;;;22.75;64.03;101656.31;5013434;28;20080;-80
2021/09/11 10:34:51;;;;;;;9.60;5.30;;;;;;;22.79;63.88;101652.44;4996869;28;20514;-79
2021/09/11 10:37:43;;;;;;;5.95;5.30;;;;;;;22.70;64.41;101662.97;5019689;28;20240;-80
2021/09/11 10:40:20;;;;;;;9.20;5.32;;;;;;;22.68;64.00;101657.75;4999661;28;20136;-79
2021/09/11 10:43:04;;;;;;;5.75;4.90;;;;;;;22.69;64.04;101659.47;4984892;28;20032;-78
2021/09/11 10:45:57;;;;;;;6.18;3.90;;;;;;;22.77;63.59;101659.69;5020109;28;20312;-79
2021/09/11 10:48:43;;;;;;;5.45;4.88;;;;;;;22.82;63.46;101659.34;5009138;28;20030;-78
2021/09/11 10:51:12;;;;;;;5.57;4.97;;;;;;;22.71;63.79;101660.19;5012478;28;20277;-78
2021/09/11 10:53:37;;;;;;;;;;;;;;;22.86;63.44;101657.28;5015216;28;20379;-78
2021/09/11 10:56:31;;;;;;;10.45;4.70;;;;;;;22.75;63.92;101663.47;5010231;28;19921;-78
2021/09/11 10:59:33;;;;;;;4.63;4.13;;;;;;;22.85;63.27;101660.91;5008366;28;20052;-79
2021/09/11 11:02:07;;;;;;;4.50;4.10;;;;;;;22.78;63.70;101653.41;4990552;28;20049;-81
2021/09/11 11:04:35;;;;;;;4.40;3.03;;;;;;;;;;4989545;28;20133;-80
2021/09/11 11:07:05;;;;;;;;;;;;;;;22.70;63.90;101652.31;5018455;28;20079;-81
2021/09/11 11:09:35;;;;;;;5.88;4.07;;;;;;;22.59;64.07;101650.47;5018392;28;19920;-81
2021/09/11 11:12:00;;;;;;;5.80;2.83;;;;;;;22.58;64.01;101649.63;5005673;28;20117;-81
2021/09/11 11:14:29;;;;;;;5.88;4.53;;;;;;;22.13;65.70;101656.72;4986181;28;20033;-84
2021/09/11 11:16:54;;;;;;;4.35;3.20;;;;;;;22.47;64.54;101667.47;5017385;28;20353;-83
2021/09/11 11:19:21;;;;;;;3.65;2.60;;;;;;;22.43;64.62;101654.38;4992141;28;20036;-83
2021/09/11 11:21:59;;;;;;;3.80;3.00;;;;;;;22.37;64.91;101670.84;5013630;28;20033;-83
2021/09/11 11:24:32;;;;;;;4.07;1.58;;;;;;;22.53;64.40;101667.00;5035065;28;20029;-83